createdAt,value
2023-02-09T06:50:29.769Z,29.75
2023-02-09T06:53:31.746Z,32.25
2023-02-09T06:56:33.374Z,32.33
2023-02-09T06:59:35.258Z,30.77
2023-02-09T07:02:36.940Z,32.78
2023-02-09T07:05:38.641Z,32.38
2023-02-09T07:08:41.206Z,33.15
2023-02-09T07:11:44.166Z,29.67
2023-02-09T07:14:47.310Z,30.23
2023-02-09T07:17:49.232Z,29.75
2023-02-09T07:20:59.030Z,30.23
2023-02-09T07:24:00.894Z,27.88
2023-02-09T07:27:07.003Z,30.23
2023-02-09T07:30:09.656Z,29.38
2023-02-09T07:33:11.314Z,29.17
2023-02-09T07:36:15.564Z,27.55
2023-02-09T07:39:18.394Z,29.50
2023-02-09T07:42:23.035Z,27.70
2023-02-09T07:48:27.491Z,25.95
2023-02-09T07:51:30.058Z,26.30
2023-02-09T07:54:32.492Z,25.23
2023-02-09T07:57:34.180Z,26.45
2023-02-09T08:00:35.872Z,25.42
2023-02-09T08:03:39.356Z,25.05
2023-02-09T08:06:46.256Z,26.00
2023-02-09T08:09:48.284Z,26.50
2023-02-09T08:13:02.982Z,26.95
2023-02-09T08:16:08.275Z,24.88
2023-02-09T08:19:14.301Z,23.20
2023-02-09T08:22:16.045Z,25.08
2023-02-09T08:25:20.945Z,24.60
2023-02-09T08:28:34.829Z,24.17
2023-02-09T08:31:40.794Z,21.90
2023-02-09T08:34:42.723Z,20.75
2023-02-09T08:37:44.618Z,20.65
2023-02-09T08:40:46.936Z,22.42
2023-02-09T08:43:49.743Z,21.40
2023-02-09T08:46:52.127Z,24.10
2023-02-09T08:49:53.954Z,22.92
2023-02-09T08:52:57.896Z,24.08
2023-02-09T08:56:00.021Z,24.50
2023-02-09T08:59:03.529Z,24.75
2023-02-09T09:02:05.285Z,24.10
2023-02-09T09:05:07.573Z,24.55
2023-02-09T09:08:12.004Z,25.05
2023-02-09T09:11:14.891Z,24.83
2023-02-09T09:14:16.714Z,24.48
2023-02-09T09:17:18.546Z,25.60
2023-02-09T09:20:20.368Z,25.35
2023-02-09T09:23:22.800Z,24.90
2023-02-09T09:26:24.497Z,24.98
2023-02-09T09:29:26.297Z,23.45
2023-02-09T09:32:28.279Z,22.40
2023-02-09T09:35:31.087Z,22.25
2023-02-09T09:38:35.069Z,20.17
2023-02-09T09:41:38.484Z,22.15
2023-02-09T09:44:47.090Z,19.63
2023-02-09T09:47:49.746Z,21.13
2023-02-09T09:50:56.918Z,21.73
2023-02-09T09:54:01.423Z,22.33
2023-02-09T09:57:03.825Z,21.50
2023-02-09T10:00:19.728Z,18.67
2023-02-09T10:03:22.902Z,19.40
2023-02-09T10:06:24.642Z,19.92
2023-02-09T10:09:42.356Z,19.42
2023-02-09T10:12:48.858Z,19.30
2023-02-09T10:15:56.586Z,17.23
2023-02-09T10:19:03.766Z,19.20
2023-02-09T10:22:10.687Z,17.30
2023-02-09T10:25:40.784Z,18.23
2023-02-09T10:28:50.134Z,18.27
2023-02-09T10:32:26.723Z,19.73
2023-02-09T10:35:43.133Z,19.30
2023-02-09T10:38:44.993Z,19.30
2023-02-09T10:41:50.182Z,20.08
2023-02-09T10:48:01.129Z,21.13
2023-02-09T10:51:08.700Z,21.90
2023-02-09T10:54:21.272Z,22.63
2023-02-09T10:57:30.936Z,21.55
2023-02-09T11:00:42.382Z,23.42
2023-02-09T11:03:59.258Z,23.20
2023-02-09T11:07:06.065Z,21.95
2023-02-09T11:10:13.142Z,22.13
2023-02-09T11:13:20.115Z,22.10
2023-02-09T11:16:40.628Z,23.90
2023-02-09T11:20:18.919Z,24.17
2023-02-09T11:23:43.033Z,23.83
2023-02-09T11:26:44.652Z,23.00
2023-02-09T11:30:11.907Z,23.17
2023-02-09T11:33:22.070Z,22.73
2023-02-09T11:36:52.558Z,22.85
2023-02-09T11:39:57.065Z,23.65
2023-02-09T11:43:11.068Z,21.42
2023-02-09T11:46:18.642Z,23.70
2023-02-09T11:49:23.540Z,22.77
2023-02-09T11:52:33.691Z,23.48
2023-02-09T11:55:41.847Z,21.58
2023-02-09T11:58:47.697Z,21.08
2023-02-09T12:02:09.155Z,24.65
2023-02-09T12:05:17.341Z,22.42
2023-02-09T12:08:38.502Z,22.45
2023-02-09T12:11:52.966Z,21.65
2023-02-09T12:15:15.241Z,22.08
2023-02-09T12:18:21.063Z,21.65
2023-02-09T12:21:38.235Z,21.48
2023-02-09T12:24:40.840Z,21.80
2023-02-09T12:28:03.587Z,23.13
2023-02-09T12:31:09.483Z,21.83
2023-02-09T12:38:07.411Z,22.00
2023-02-09T12:41:12.776Z,21.50
2023-02-09T12:44:18.342Z,18.63
2023-02-09T12:47:43.783Z,20.23
2023-02-09T12:50:49.444Z,22.85
2023-02-09T12:53:53.517Z,22.80
2023-02-09T12:56:56.565Z,23.23
2023-02-09T12:59:59.853Z,22.88
2023-02-09T13:03:11.704Z,23.92
2023-02-09T13:06:24.191Z,22.80
2023-02-09T13:09:33.016Z,20.65
2023-02-09T13:12:43.082Z,19.67
2023-02-09T13:16:03.378Z,20.77
2023-02-09T13:19:47.068Z,20.42
2023-02-09T13:22:55.545Z,18.95
2023-02-09T13:26:19.642Z,18.10
2023-02-09T13:29:26.543Z,16.95
2023-02-09T13:32:54.238Z,17.75
2023-02-09T13:36:29.556Z,17.35
2023-02-09T13:39:37.198Z,17.88
2023-02-09T13:42:51.988Z,16.02
2023-02-09T13:45:56.037Z,13.80
2023-02-09T13:49:11.375Z,13.63
2023-02-09T13:52:16.273Z,13.98
2023-02-09T13:55:24.144Z,14.95
2023-02-09T13:58:27.523Z,18.40
2023-02-09T14:01:35.648Z,18.25
2023-02-09T14:04:37.674Z,19.48
2023-02-09T14:07:45.347Z,19.23
2023-02-09T14:11:10.924Z,18.58
2023-02-09T14:15:04.389Z,19.92
2023-02-09T14:18:33.524Z,21.38
2023-02-09T14:21:49.828Z,20.67
2023-02-09T14:24:58.872Z,20.85
2023-02-09T14:28:07.881Z,21.27
2023-02-09T14:31:22.356Z,22.27
2023-02-09T14:34:31.896Z,21.83
2023-02-09T14:37:37.022Z,21.08
2023-02-09T14:43:40.320Z,17.50
2023-02-09T14:46:59.684Z,17.73
2023-02-09T14:50:02.343Z,16.75
2023-02-09T14:53:07.907Z,15.98
2023-02-09T14:56:23.668Z,15.35
2023-02-09T14:59:25.327Z,16.48
2023-02-09T15:02:28.150Z,17.17
2023-02-09T15:05:30.038Z,16.30
2023-02-09T15:08:35.149Z,16.55
2023-02-09T15:14:59.816Z,17.42
2023-02-09T15:18:01.478Z,17.65
2023-02-09T15:21:03.253Z,16.65
2023-02-09T15:24:05.253Z,18.52
2023-02-09T15:27:14.815Z,17.52
2023-02-09T15:30:20.461Z,18.20
2023-02-09T15:33:22.091Z,18.80
2023-02-09T15:36:25.057Z,18.73
2023-02-09T15:39:30.253Z,19.35
2023-02-09T15:42:50.622Z,24.75
2023-02-09T15:45:58.366Z,20.05
2023-02-09T15:49:00.417Z,18.92
2023-02-09T15:52:02.280Z,18.17
2023-02-09T15:55:04.529Z,19.27
2023-02-09T15:58:13.924Z,19.35
2023-02-09T16:01:17.219Z,18.92
2023-02-09T16:04:19.254Z,19.73
2023-02-09T16:07:25.763Z,19.85
2023-02-09T16:10:29.796Z,19.58
2023-02-09T16:13:31.502Z,19.23
2023-02-09T16:16:33.765Z,21.30
2023-02-09T16:19:35.541Z,19.77
2023-02-09T16:22:40.644Z,19.17
2023-02-09T16:28:44.367Z,20.00
2023-02-09T16:31:46.077Z,19.80
2023-02-09T16:34:48.783Z,19.48
2023-02-09T16:37:52.734Z,21.65
2023-02-09T16:40:55.744Z,19.15
2023-02-09T16:43:57.937Z,19.10
2023-02-09T16:47:02.412Z,19.35
2023-02-09T16:50:16.442Z,20.20
2023-02-09T16:53:22.756Z,19.92
2023-02-09T16:56:25.895Z,19.27
2023-02-09T16:59:27.606Z,19.30
